sensor_id;sensor_type;location;lat;lon;timestamp;temperature;humidity
66827;DHT22;53727;45.242;19.796;2022-12-29T00:02:03;128.80;2252.80
66827;DHT22;53727;45.242;19.796;2022-12-29T00:04:28;128.60;2252.80
66827;DHT22;53727;45.242;19.796;2022-12-29T00:06:54;128.60;2252.80
66827;DHT22;53727;45.242;19.796;2022-12-29T00:09:20;128.60;2252.80
66827;DHT22;53727;45.242;19.796;2022-12-29T00:11:46;128.60;2252.80
66827;DHT22;53727;45.242;19.796;2022-12-29T00:14:12;128.60;2252.80
66827;DHT22;53727;45.242;19.796;2022-12-29T00:16:57;128.70;2252.80
66827;DHT22;53727;45.242;19.796;2022-12-29T00:19:23;128.80;2252.80
66827;DHT22;53727;45.242;19.796;2022-12-29T00:22:12;128.90;2252.80
66827;DHT22;53727;45.242;19.796;2022-12-29T00:24:57;128.80;2252.80
66827;DHT22;53727;45.242;19.796;2022-12-29T00:27:41;128.80;2252.80
66827;DHT22;53727;45.242;19.796;2022-12-29T00:30:25;128.80;2252.80
66827;DHT22;53727;45.242;19.796;2022-12-29T00:33:15;128.80;2252.80
66827;DHT22;53727;45.242;19.796;2022-12-29T00:36:03;128.70;2252.80
66827;DHT22;53727;45.242;19.796;2022-12-29T00:38:32;128.70;2252.80
66827;DHT22;53727;45.242;19.796;2022-12-29T00:41:19;128.70;2252.80
66827;DHT22;53727;45.242;19.796;2022-12-29T00:44:03;128.60;2252.80
66827;DHT22;53727;45.242;19.796;2022-12-29T00:46:33;128.60;2252.80
66827;DHT22;53727;45.242;19.796;2022-12-29T00:48:59;128.40;2252.80
66827;DHT22;53727;45.242;19.796;2022-12-29T00:51:44;128.50;2252.80
66827;DHT22;53727;45.242;19.796;2022-12-29T00:54:10;128.40;2252.80
66827;DHT22;53727;45.242;19.796;2022-12-29T00:56:35;128.30;2252.80
66827;DHT22;53727;45.242;19.796;2022-12-29T00:59:02;128.40;2252.80
66827;DHT22;53727;45.242;19.796;2022-12-29T01:01:28;128.40;2252.80
66827;DHT22;53727;45.242;19.796;2022-12-29T01:03:54;128.30;2252.80
66827;DHT22;53727;45.242;19.796;2022-12-29T01:06:19;128.30;2252.80
66827;DHT22;53727;45.242;19.796;2022-12-29T01:08:45;128.10;2252.80
66827;DHT22;53727;45.242;19.796;2022-12-29T01:11:12;128.20;2252.80
66827;DHT22;53727;45.242;19.796;2022-12-29T01:13:38;128.10;2252.80
66827;DHT22;53727;45.242;19.796;2022-12-29T01:16:05;128.10;2252.80
66827;DHT22;53727;45.242;19.796;2022-12-29T01:18:31;128.00;2252.80
66827;DHT22;53727;45.242;19.796;2022-12-29T01:21:05;128.00;2252.80
66827;DHT22;53727;45.242;19.796;2022-12-29T01:23:32;103.30;2227.20
66827;DHT22;53727;45.242;19.796;2022-12-29T01:26:11;103.30;2227.20
66827;DHT22;53727;45.242;19.796;2022-12-29T01:28:37;103.20;2227.20
66827;DHT22;53727;45.242;19.796;2022-12-29T01:31:06;103.10;2227.20
66827;DHT22;53727;45.242;19.796;2022-12-29T01:33:32;103.20;2227.20
66827;DHT22;53727;45.242;19.796;2022-12-29T01:36:05;103.20;2227.20
66827;DHT22;53727;45.242;19.796;2022-12-29T01:38:31;103.20;2227.20
66827;DHT22;53727;45.242;19.796;2022-12-29T01:40:57;103.20;2227.20
66827;DHT22;53727;45.242;19.796;2022-12-29T01:43:46;103.20;2227.20
66827;DHT22;53727;45.242;19.796;2022-12-29T01:46:41;103.20;2227.20
66827;DHT22;53727;45.242;19.796;2022-12-29T01:49:16;103.10;2227.20
66827;DHT22;53727;45.242;19.796;2022-12-29T01:52:16;103.20;2227.20
66827;DHT22;53727;45.242;19.796;2022-12-29T01:54:45;103.20;2227.20
66827;DHT22;53727;45.242;19.796;2022-12-29T01:57:18;103.20;2227.20
66827;DHT22;53727;45.242;19.796;2022-12-29T02:00:01;103.10;2227.20
66827;DHT22;53727;45.242;19.796;2022-12-29T02:02:29;103.10;2227.20
66827;DHT22;53727;45.242;19.796;2022-12-29T02:04:55;103.10;2227.20
66827;DHT22;53727;45.242;19.796;2022-12-29T02:07:24;103.10;2227.20
66827;DHT22;53727;45.242;19.796;2022-12-29T02:09:53;103.10;2227.20
66827;DHT22;53727;45.242;19.796;2022-12-29T02:12:21;103.00;2227.20
66827;DHT22;53727;45.242;19.796;2022-12-29T02:14:53;103.10;2227.20
66827;DHT22;53727;45.242;19.796;2022-12-29T02:32:07;103.00;2227.20
66827;DHT22;53727;45.242;19.796;2022-12-29T02:34:58;102.90;2227.20
66827;DHT22;53727;45.242;19.796;2022-12-29T02:37:43;102.80;2227.20
66827;DHT22;53727;45.242;19.796;2022-12-29T02:40:37;102.80;2227.20
66827;DHT22;53727;45.242;19.796;2022-12-29T02:49:19;102.80;2227.20
66827;DHT22;53727;45.242;19.796;2022-12-29T02:52:02;102.80;2227.20
66827;DHT22;53727;45.242;19.796;2022-12-29T02:54:30;102.80;2227.20
66827;DHT22;53727;45.242;19.796;2022-12-29T02:57:30;102.80;2227.20
66827;DHT22;53727;45.242;19.796;2022-12-29T03:00:06;102.80;2227.20
66827;DHT22;53727;45.242;19.796;2022-12-29T03:09:19;102.80;2227.20
66827;DHT22;53727;45.242;19.796;2022-12-29T03:11:58;102.80;2227.20
66827;DHT22;53727;45.242;19.796;2022-12-29T03:17:57;102.80;2227.20
66827;DHT22;53727;45.242;19.796;2022-12-29T03:20:31;102.80;2227.20
66827;DHT22;53727;45.242;19.796;2022-12-29T03:23:00;102.80;2227.20
66827;DHT22;53727;45.242;19.796;2022-12-29T03:25:32;102.80;2227.20
66827;DHT22;53727;45.242;19.796;2022-12-29T03:28:09;102.80;2227.20
66827;DHT22;53727;45.242;19.796;2022-12-29T03:30:37;102.70;2227.20
66827;DHT22;53727;45.242;19.796;2022-12-29T03:33:07;102.70;2227.20
66827;DHT22;53727;45.242;19.796;2022-12-29T03:35:36;102.70;2227.20
66827;DHT22;53727;45.242;19.796;2022-12-29T03:38:25;102.80;2227.20
66827;DHT22;53727;45.242;19.796;2022-12-29T03:40:57;102.80;2227.20
66827;DHT22;53727;45.242;19.796;2022-12-29T03:43:24;102.70;2227.20
66827;DHT22;53727;45.242;19.796;2022-12-29T03:45:51;102.60;2227.20
66827;DHT22;53727;45.242;19.796;2022-12-29T03:48:19;102.60;2227.20
66827;DHT22;53727;45.242;19.796;2022-12-29T03:50:45;102.70;2227.20
66827;DHT22;53727;45.242;19.796;2022-12-29T03:53:10;102.70;2227.20
66827;DHT22;53727;45.242;19.796;2022-12-29T03:55:36;102.70;2227.20
66827;DHT22;53727;45.242;19.796;2022-12-29T03:58:02;102.70;2227.20
66827;DHT22;53727;45.242;19.796;2022-12-29T04:00:28;102.70;2227.20
66827;DHT22;53727;45.242;19.796;2022-12-29T04:02:54;102.70;2227.20
66827;DHT22;53727;45.242;19.796;2022-12-29T04:05:20;102.50;2227.20
66827;DHT22;53727;45.242;19.796;2022-12-29T04:07:46;102.50;2227.20
66827;DHT22;53727;45.242;19.796;2022-12-29T04:10:12;102.50;2227.20
66827;DHT22;53727;45.242;19.796;2022-12-29T04:12:37;102.50;2227.20
66827;DHT22;53727;45.242;19.796;2022-12-29T04:15:03;102.50;2227.20
66827;DHT22;53727;45.242;19.796;2022-12-29T04:17:30;102.60;2227.20
66827;DHT22;53727;45.242;19.796;2022-12-29T04:19:56;102.70;2227.20
66827;DHT22;53727;45.242;19.796;2022-12-29T04:22:41;102.60;2227.20
66827;DHT22;53727;45.242;19.796;2022-12-29T04:25:07;102.60;2227.20
66827;DHT22;53727;45.242;19.796;2022-12-29T04:27:33;102.60;2227.20
66827;DHT22;53727;45.242;19.796;2022-12-29T04:29:59;102.60;2227.20
66827;DHT22;53727;45.242;19.796;2022-12-29T04:32:24;102.70;2227.20
66827;DHT22;53727;45.242;19.796;2022-12-29T04:34:50;102.70;2227.20
66827;DHT22;53727;45.242;19.796;2022-12-29T04:37:16;102.70;2227.20
66827;DHT22;53727;45.242;19.796;2022-12-29T04:39:42;102.70;2227.20
66827;DHT22;53727;45.242;19.796;2022-12-29T04:42:07;102.80;2227.20
66827;DHT22;53727;45.242;19.796;2022-12-29T04:44:33;102.80;2227.20
66827;DHT22;53727;45.242;19.796;2022-12-29T04:46:59;102.90;2227.20
66827;DHT22;53727;45.242;19.796;2022-12-29T04:49:24;102.90;2227.20
66827;DHT22;53727;45.242;19.796;2022-12-29T04:51:50;102.70;2227.20
66827;DHT22;53727;45.242;19.796;2022-12-29T04:54:16;102.60;2227.20
66827;DHT22;53727;45.242;19.796;2022-12-29T04:56:41;102.60;2227.20
66827;DHT22;53727;45.242;19.796;2022-12-29T04:59:07;102.70;2227.20
66827;DHT22;53727;45.242;19.796;2022-12-29T05:01:33;102.70;2227.20
66827;DHT22;53727;45.242;19.796;2022-12-29T05:03:58;102.80;2227.20
66827;DHT22;53727;45.242;19.796;2022-12-29T05:06:24;102.80;2227.20
66827;DHT22;53727;45.242;19.796;2022-12-29T05:08:50;102.90;2227.20
66827;DHT22;53727;45.242;19.796;2022-12-29T05:11:15;102.90;2227.20
66827;DHT22;53727;45.242;19.796;2022-12-29T05:13:44;103.00;2227.20
66827;DHT22;53727;45.242;19.796;2022-12-29T05:16:11;102.80;2227.20
66827;DHT22;53727;45.242;19.796;2022-12-29T05:18:36;102.90;2227.20
66827;DHT22;53727;45.242;19.796;2022-12-29T05:21:04;102.90;2227.20
66827;DHT22;53727;45.242;19.796;2022-12-29T05:23:29;102.90;2227.20
66827;DHT22;53727;45.242;19.796;2022-12-29T05:25:55;102.90;2227.20
66827;DHT22;53727;45.242;19.796;2022-12-29T05:28:21;103.00;2227.20
66827;DHT22;53727;45.242;19.796;2022-12-29T05:30:50;103.00;2227.20
66827;DHT22;53727;45.242;19.796;2022-12-29T05:33:19;102.90;2227.20
66827;DHT22;53727;45.242;19.796;2022-12-29T05:35:45;103.00;2227.20
66827;DHT22;53727;45.242;19.796;2022-12-29T05:38:11;103.00;2227.20
66827;DHT22;53727;45.242;19.796;2022-12-29T05:40:38;103.00;2227.20
66827;DHT22;53727;45.242;19.796;2022-12-29T05:43:04;103.00;2227.20
66827;DHT22;53727;45.242;19.796;2022-12-29T05:45:29;103.00;2227.20
66827;DHT22;53727;45.242;19.796;2022-12-29T05:47:55;102.90;2227.20
66827;DHT22;53727;45.242;19.796;2022-12-29T05:50:21;103.00;2227.20
66827;DHT22;53727;45.242;19.796;2022-12-29T05:52:46;103.00;2227.20
66827;DHT22;53727;45.242;19.796;2022-12-29T05:55:12;103.00;2227.20
66827;DHT22;53727;45.242;19.796;2022-12-29T05:57:38;103.10;2227.20
66827;DHT22;53727;45.242;19.796;2022-12-29T06:00:05;103.10;2227.20
66827;DHT22;53727;45.242;19.796;2022-12-29T06:02:32;103.00;2227.20
66827;DHT22;53727;45.242;19.796;2022-12-29T06:04:58;103.10;2227.20
66827;DHT22;53727;45.242;19.796;2022-12-29T06:07:25;103.10;2227.20
66827;DHT22;53727;45.242;19.796;2022-12-29T06:09:50;103.00;2227.20
66827;DHT22;53727;45.242;19.796;2022-12-29T06:12:16;103.00;2227.20
66827;DHT22;53727;45.242;19.796;2022-12-29T06:14:42;103.00;2227.20
66827;DHT22;53727;45.242;19.796;2022-12-29T06:17:08;103.00;2227.20
66827;DHT22;53727;45.242;19.796;2022-12-29T06:19:33;103.10;2227.20
66827;DHT22;53727;45.242;19.796;2022-12-29T06:21:59;103.10;2227.20
66827;DHT22;53727;45.242;19.796;2022-12-29T06:24:25;103.10;2227.20
66827;DHT22;53727;45.242;19.796;2022-12-29T06:26:50;103.10;2227.20
66827;DHT22;53727;45.242;19.796;2022-12-29T06:29:16;103.10;2227.20
66827;DHT22;53727;45.242;19.796;2022-12-29T06:31:44;103.20;2227.20
66827;DHT22;53727;45.242;19.796;2022-12-29T06:34:12;103.20;2227.20
66827;DHT22;53727;45.242;19.796;2022-12-29T06:36:37;128.20;2252.80
66827;DHT22;53727;45.242;19.796;2022-12-29T06:39:03;128.50;2252.80
66827;DHT22;53727;45.242;19.796;2022-12-29T06:41:29;128.70;2252.80
66827;DHT22;53727;45.242;19.796;2022-12-29T06:43:55;153.70;2252.80
66827;DHT22;53727;45.242;19.796;2022-12-29T06:46:20;153.90;2252.80
66827;DHT22;53727;45.242;19.796;2022-12-29T06:48:46;154.20;2252.80
66827;DHT22;53727;45.242;19.796;2022-12-29T06:51:12;154.20;2252.80
66827;DHT22;53727;45.242;19.796;2022-12-29T06:53:38;154.30;2252.80
66827;DHT22;53727;45.242;19.796;2022-12-29T06:56:04;154.50;2252.80
66827;DHT22;53727;45.242;19.796;2022-12-29T06:58:30;179.30;2252.80
66827;DHT22;53727;45.242;19.796;2022-12-29T07:00:56;179.50;2252.80
66827;DHT22;53727;45.242;19.796;2022-12-29T07:03:22;179.80;2252.80
66827;DHT22;53727;45.242;19.796;2022-12-29T07:05:47;179.80;2252.80
66827;DHT22;53727;45.242;19.796;2022-12-29T07:08:13;179.80;2252.80
66827;DHT22;53727;45.242;19.796;2022-12-29T07:10:39;204.80;2252.80
66827;DHT22;53727;45.242;19.796;2022-12-29T07:13:05;180.10;2252.80
66827;DHT22;53727;45.242;19.796;2022-12-29T07:17:59;205.30;2252.80
66827;DHT22;53727;45.242;19.796;2022-12-29T07:20:24;205.40;2252.80
66827;DHT22;53727;45.242;19.796;2022-12-29T07:22:50;205.60;2252.80
66827;DHT22;53727;45.242;19.796;2022-12-29T07:25:16;230.50;2252.80
66827;DHT22;53727;45.242;19.796;2022-12-29T07:27:41;230.70;2252.80
66827;DHT22;53727;45.242;19.796;2022-12-29T07:30:08;230.90;2252.80
66827;DHT22;53727;45.242;19.796;2022-12-29T07:32:34;231.20;2252.80
66827;DHT22;53727;45.242;19.796;2022-12-29T07:35:00;256.00;2252.80
